sensor_id;sensor_type;location;lat;lon;timestamp;pressure;altitude;pressure_sealevel;temperature;humidity
8523;BME280;4299;42.202;24.736;2023-02-28T00:00:53;100120.34;;;8.33;100.00
8523;BME280;4299;42.202;24.736;2023-02-28T00:03:21;100136.84;;;8.39;100.00
8523;BME280;4299;42.202;24.736;2023-02-28T00:05:48;100141.13;;;8.42;100.00
8523;BME280;4299;42.202;24.736;2023-02-28T00:08:14;100152.41;;;8.47;100.00
8523;BME280;4299;42.202;24.736;2023-02-28T00:10:41;100144.34;;;8.50;100.00
8523;BME280;4299;42.202;24.736;2023-02-28T00:13:08;100151.25;;;8.54;100.00
8523;BME280;4299;42.202;24.736;2023-02-28T00:15:34;100141.41;;;8.57;100.00
8523;BME280;4299;42.202;24.736;2023-02-28T00:18:01;100151.03;;;8.60;100.00
8523;BME280;4299;42.202;24.736;2023-02-28T00:20:29;100153.47;;;8.65;100.00
8523;BME280;4299;42.202;24.736;2023-02-28T00:22:56;100153.66;;;8.60;100.00
8523;BME280;4299;42.202;24.736;2023-02-28T00:25:24;100150.84;;;8.65;100.00
8523;BME280;4299;42.202;24.736;2023-02-28T00:27:51;100148.19;;;8.65;100.00
8523;BME280;4299;42.202;24.736;2023-02-28T00:30:19;100144.59;;;8.67;100.00
8523;BME280;4299;42.202;24.736;2023-02-28T00:32:46;100147.97;;;8.71;100.00
8523;BME280;4299;42.202;24.736;2023-02-28T00:35:14;100145.16;;;8.75;100.00
8523;BME280;4299;42.202;24.736;2023-02-28T00:37:42;100146.75;;;8.79;100.00
8523;BME280;4299;42.202;24.736;2023-02-28T00:40:10;100143.97;;;8.84;100.00
8523;BME280;4299;42.202;24.736;2023-02-28T00:42:37;100146.66;;;8.82;100.00
8523;BME280;4299;42.202;24.736;2023-02-28T00:45:05;100137.66;;;8.86;100.00
8523;BME280;4299;42.202;24.736;2023-02-28T00:47:33;100132.38;;;8.86;100.00
8523;BME280;4299;42.202;24.736;2023-02-28T00:50:00;100133.13;;;8.90;100.00
8523;BME280;4299;42.202;24.736;2023-02-28T00:52:27;100126.84;;;8.92;100.00
8523;BME280;4299;42.202;24.736;2023-02-28T00:54:55;100130.19;;;8.97;100.00
8523;BME280;4299;42.202;24.736;2023-02-28T00:57:22;100136.34;;;8.98;100.00
8523;BME280;4299;42.202;24.736;2023-02-28T00:59:49;100135.47;;;8.97;100.00
8523;BME280;4299;42.202;24.736;2023-02-28T01:02:15;100137.06;;;9.02;100.00
8523;BME280;4299;42.202;24.736;2023-02-28T01:04:43;100145.81;;;9.04;100.00
8523;BME280;4299;42.202;24.736;2023-02-28T01:07:10;100149.28;;;9.06;100.00
8523;BME280;4299;42.202;24.736;2023-02-28T01:09:36;100143.13;;;9.05;100.00
8523;BME280;4299;42.202;24.736;2023-02-28T01:12:05;100148.31;;;9.07;100.00
8523;BME280;4299;42.202;24.736;2023-02-28T01:14:33;100152.84;;;9.05;100.00
8523;BME280;4299;42.202;24.736;2023-02-28T01:17:00;100150.84;;;9.10;100.00
8523;BME280;4299;42.202;24.736;2023-02-28T01:19:26;100163.03;;;9.14;100.00
8523;BME280;4299;42.202;24.736;2023-02-28T01:21:53;100175.34;;;9.15;100.00
8523;BME280;4299;42.202;24.736;2023-02-28T01:24:20;100186.91;;;9.12;100.00
8523;BME280;4299;42.202;24.736;2023-02-28T01:26:46;100188.59;;;9.13;100.00
8523;BME280;4299;42.202;24.736;2023-02-28T01:29:15;100169.06;;;9.17;100.00
8523;BME280;4299;42.202;24.736;2023-02-28T01:31:41;100166.47;;;9.16;100.00
8523;BME280;4299;42.202;24.736;2023-02-28T01:34:08;100177.19;;;9.13;100.00
8523;BME280;4299;42.202;24.736;2023-02-28T01:36:35;100171.44;;;9.02;100.00
8523;BME280;4299;42.202;24.736;2023-02-28T01:39:02;100186.50;;;8.99;100.00
8523;BME280;4299;42.202;24.736;2023-02-28T01:41:32;100188.84;;;9.07;100.00
8523;BME280;4299;42.202;24.736;2023-02-28T01:44:02;100183.47;;;9.10;100.00
8523;BME280;4299;42.202;24.736;2023-02-28T01:46:32;100194.75;;;9.14;100.00
8523;BME280;4299;42.202;24.736;2023-02-28T01:49:04;100203.50;;;9.16;100.00
8523;BME280;4299;42.202;24.736;2023-02-28T01:51:35;100205.00;;;9.23;100.00
8523;BME280;4299;42.202;24.736;2023-02-28T01:54:07;100219.69;;;9.30;100.00
8523;BME280;4299;42.202;24.736;2023-02-28T01:56:41;100216.44;;;9.23;100.00
8523;BME280;4299;42.202;24.736;2023-02-28T01:59:10;100222.84;;;9.18;100.00
8523;BME280;4299;42.202;24.736;2023-02-28T02:01:40;100217.19;;;9.27;100.00
8523;BME280;4299;42.202;24.736;2023-02-28T02:04:06;100223.41;;;9.26;100.00
8523;BME280;4299;42.202;24.736;2023-02-28T02:06:37;100227.28;;;9.39;100.00
8523;BME280;4299;42.202;24.736;2023-02-28T02:09:04;100235.78;;;9.47;100.00
8523;BME280;4299;42.202;24.736;2023-02-28T02:11:32;100231.84;;;9.57;100.00
8523;BME280;4299;42.202;24.736;2023-02-28T02:17:16;100237.63;;;9.89;100.00
8523;BME280;4299;42.202;24.736;2023-02-28T02:20:19;100235.00;;;10.09;100.00
8523;BME280;4299;42.202;24.736;2023-02-28T02:23:26;100234.66;;;10.18;100.00
8523;BME280;4299;42.202;24.736;2023-02-28T02:25:58;100236.00;;;10.28;100.00
8523;BME280;4299;42.202;24.736;2023-02-28T02:28:46;100219.53;;;10.40;100.00
8523;BME280;4299;42.202;24.736;2023-02-28T02:31:30;100217.41;;;10.48;100.00
8523;BME280;4299;42.202;24.736;2023-02-28T02:34:27;100233.31;;;10.48;100.00
8523;BME280;4299;42.202;24.736;2023-02-28T02:37:03;100225.75;;;10.39;100.00
8523;BME280;4299;42.202;24.736;2023-02-28T02:39:42;100238.44;;;10.33;100.00
8523;BME280;4299;42.202;24.736;2023-02-28T02:42:15;100227.34;;;10.23;100.00
8523;BME280;4299;42.202;24.736;2023-02-28T02:44:47;100229.34;;;10.18;100.00
8523;BME280;4299;42.202;24.736;2023-02-28T02:47:18;100240.19;;;10.12;100.00
8523;BME280;4299;42.202;24.736;2023-02-28T02:49:50;100231.41;;;10.10;100.00
8523;BME280;4299;42.202;24.736;2023-02-28T02:52:20;100237.84;;;10.04;100.00
8523;BME280;4299;42.202;24.736;2023-02-28T02:54:50;100242.38;;;10.01;100.00
8523;BME280;4299;42.202;24.736;2023-02-28T02:57:28;100242.53;;;9.98;100.00
8523;BME280;4299;42.202;24.736;2023-02-28T02:59:57;100252.38;;;9.94;100.00
8523;BME280;4299;42.202;24.736;2023-02-28T03:02:27;100258.53;;;9.95;100.00
8523;BME280;4299;42.202;24.736;2023-02-28T03:05:02;100264.59;;;9.98;100.00
8523;BME280;4299;42.202;24.736;2023-02-28T03:07:30;100262.81;;;9.99;100.00
8523;BME280;4299;42.202;24.736;2023-02-28T03:09:57;100267.03;;;10.03;100.00
8523;BME280;4299;42.202;24.736;2023-02-28T03:12:31;100275.75;;;10.06;100.00
8523;BME280;4299;42.202;24.736;2023-02-28T03:15:07;100271.38;;;10.05;100.00
8523;BME280;4299;42.202;24.736;2023-02-28T03:18:00;100283.47;;;10.11;100.00
8523;BME280;4299;42.202;24.736;2023-02-28T03:20:38;100286.28;;;10.08;100.00
8523;BME280;4299;42.202;24.736;2023-02-28T03:23:13;100286.28;;;10.08;100.00
8523;BME280;4299;42.202;24.736;2023-02-28T03:25:52;100286.13;;;10.11;100.00
8523;BME280;4299;42.202;24.736;2023-02-28T03:28:28;100289.84;;;10.07;100.00
8523;BME280;4299;42.202;24.736;2023-02-28T03:31:00;100286.28;;;10.08;100.00
8523;BME280;4299;42.202;24.736;2023-02-28T03:33:33;100290.00;;;10.02;100.00
8523;BME280;4299;42.202;24.736;2023-02-28T03:36:06;100289.69;;;10.10;100.00
8523;BME280;4299;42.202;24.736;2023-02-28T03:38:38;100286.38;;;10.05;100.00
8523;BME280;4299;42.202;24.736;2023-02-28T03:41:15;100288.13;;;10.06;100.00
8523;BME280;4299;42.202;24.736;2023-02-28T03:43:48;100291.69;;;10.05;100.00
8523;BME280;4299;42.202;24.736;2023-02-28T03:46:18;100289.97;;;10.04;100.00
8523;BME280;4299;42.202;24.736;2023-02-28T03:48:51;100302.41;;;10.02;100.00
8523;BME280;4299;42.202;24.736;2023-02-28T03:51:22;100300.56;;;10.04;100.00
8523;BME280;4299;42.202;24.736;2023-02-28T03:53:52;100308.50;;;10.04;100.00
8523;BME280;4299;42.202;24.736;2023-02-28T03:56:24;100321.75;;;10.04;100.00
8523;BME280;4299;42.202;24.736;2023-02-28T03:58:57;100308.56;;;10.02;100.00
8523;BME280;4299;42.202;24.736;2023-02-28T04:01:30;100313.38;;;9.93;100.00
8523;BME280;4299;42.202;24.736;2023-02-28T04:03:58;100327.53;;;9.92;100.00
8523;BME280;4299;42.202;24.736;2023-02-28T04:06:27;100332.69;;;9.95;100.00
8523;BME280;4299;42.202;24.736;2023-02-28T04:08:56;100323.84;;;9.96;100.00
8523;BME280;4299;42.202;24.736;2023-02-28T04:11:27;100343.44;;;9.92;100.00
8523;BME280;4299;42.202;24.736;2023-02-28T04:13:55;100331.63;;;9.79;100.00
8523;BME280;4299;42.202;24.736;2023-02-28T04:16:21;100336.09;;;9.76;100.00
8523;BME280;4299;42.202;24.736;2023-02-28T04:18:48;100339.56;;;9.79;100.00
8523;BME280;4299;42.202;24.736;2023-02-28T04:21:15;100342.06;;;9.82;100.00
8523;BME280;4299;42.202;24.736;2023-02-28T04:23:47;100354.28;;;9.86;100.00
8523;BME280;4299;42.202;24.736;2023-02-28T04:26:13;100350.81;;;9.84;100.00
8523;BME280;4299;42.202;24.736;2023-02-28T04:28:40;100350.94;;;9.81;100.00
8523;BME280;4299;42.202;24.736;2023-02-28T04:31:07;100345.63;;;9.81;100.00
8523;BME280;4299;42.202;24.736;2023-02-28T04:33:33;100345.78;;;9.77;100.00
8523;BME280;4299;42.202;24.736;2023-02-28T04:36:01;100342.31;;;9.75;100.00
8523;BME280;4299;42.202;24.736;2023-02-28T04:38:29;100347.34;;;9.82;100.00
8523;BME280;4299;42.202;24.736;2023-02-28T04:41:00;100342.72;;;9.87;100.00
8523;BME280;4299;42.202;24.736;2023-02-28T04:43:27;100345.38;;;9.87;100.00
8523;BME280;4299;42.202;24.736;2023-02-28T04:45:54;100347.25;;;9.85;100.00
8523;BME280;4299;42.202;24.736;2023-02-28T04:48:22;100347.13;;;9.88;100.00
8523;BME280;4299;42.202;24.736;2023-02-28T04:50:49;100343.53;;;9.89;100.00
8523;BME280;4299;42.202;24.736;2023-02-28T04:53:16;100349.75;;;9.88;100.00
8523;BME280;4299;42.202;24.736;2023-02-28T04:55:43;100351.63;;;9.86;100.00
8523;BME280;4299;42.202;24.736;2023-02-28T04:58:11;100355.16;;;9.86;100.00
8523;BME280;4299;42.202;24.736;2023-02-28T05:00:38;100352.78;;;9.79;100.00
8523;BME280;4299;42.202;24.736;2023-02-28T05:03:04;100356.38;;;9.77;100.00
8523;BME280;4299;42.202;24.736;2023-02-28T05:05:31;100361.66;;;9.77;100.00
8523;BME280;4299;42.202;24.736;2023-02-28T05:07:58;100358.94;;;9.79;100.00
8523;BME280;4299;42.202;24.736;2023-02-28T05:10:25;100367.06;;;9.74;100.00
8523;BME280;4299;42.202;24.736;2023-02-28T05:12:51;100380.25;;;9.76;100.00
8523;BME280;4299;42.202;24.736;2023-02-28T05:15:20;100375.47;;;9.86;100.00
8523;BME280;4299;42.202;24.736;2023-02-28T05:17:46;100384.75;;;9.96;100.00
8523;BME280;4299;42.202;24.736;2023-02-28T05:20:13;100374.72;;;10.04;100.00
8523;BME280;4299;42.202;24.736;2023-02-28T05:22:40;100386.94;;;10.08;100.00
8523;BME280;4299;42.202;24.736;2023-02-28T05:25:10;100390.13;;;10.16;100.00
8523;BME280;4299;42.202;24.736;2023-02-28T05:27:38;100391.28;;;10.09;100.00
8523;BME280;4299;42.202;24.736;2023-02-28T05:30:06;100390.63;;;10.04;100.00
8523;BME280;4299;42.202;24.736;2023-02-28T05:32:37;100397.91;;;9.99;100.00
8523;BME280;4299;42.202;24.736;2023-02-28T05:35:04;100394.44;;;9.97;100.00
8523;BME280;4299;42.202;24.736;2023-02-28T05:37:31;100396.41;;;9.92;100.00
8523;BME280;4299;42.202;24.736;2023-02-28T05:39:58;100408.59;;;9.96;100.00
8523;BME280;4299;42.202;24.736;2023-02-28T05:42:24;100417.22;;;10.01;100.00
8523;BME280;4299;42.202;24.736;2023-02-28T05:44:51;100411.69;;;10.07;100.00
8523;BME280;4299;42.202;24.736;2023-02-28T05:47:18;100413.44;;;10.08;100.00
8523;BME280;4299;42.202;24.736;2023-02-28T05:49:46;100420.44;;;10.09;100.00
8523;BME280;4299;42.202;24.736;2023-02-28T05:52:14;100422.50;;;10.01;100.00
8523;BME280;4299;42.202;24.736;2023-02-28T05:54:41;100414.56;;;10.01;100.00
8523;BME280;4299;42.202;24.736;2023-02-28T05:57:07;100423.09;;;10.09;100.00
8523;BME280;4299;42.202;24.736;2023-02-28T05:59:34;100428.97;;;10.17;100.00
8523;BME280;4299;42.202;24.736;2023-02-28T06:02:05;100431.38;;;10.23;100.00
8523;BME280;4299;42.202;24.736;2023-02-28T06:04:32;100423.88;;;10.11;100.00
8523;BME280;4299;42.202;24.736;2023-02-28T06:07:00;100429.44;;;10.05;100.00
8523;BME280;4299;42.202;24.736;2023-02-28T06:09:27;100429.34;;;10.08;100.00
8523;BME280;4299;42.202;24.736;2023-02-28T06:11:57;100433.25;;;10.21;100.00
8523;BME280;4299;42.202;24.736;2023-02-28T06:14:26;100438.56;;;10.21;100.00
8523;BME280;4299;42.202;24.736;2023-02-28T06:16:53;100441.19;;;10.21;100.00
8523;BME280;4299;42.202;24.736;2023-02-28T06:19:19;100449.22;;;10.20;100.00
8523;BME280;4299;42.202;24.736;2023-02-28T06:21:49;100449.38;;;10.15;100.00
8523;BME280;4299;42.202;24.736;2023-02-28T06:24:19;100448.91;;;10.04;100.00
8523;BME280;4299;42.202;24.736;2023-02-28T06:26:45;100450.97;;;9.96;100.00
8523;BME280;4299;42.202;24.736;2023-02-28T06:29:12;100459.16;;;9.90;100.00
8523;BME280;4299;42.202;24.736;2023-02-28T06:31:43;100453.53;;;9.75;100.00
8523;BME280;4299;42.202;24.736;2023-02-28T06:34:11;100458.03;;;9.72;100.00
8523;BME280;4299;42.202;24.736;2023-02-28T06:36:38;100466.50;;;9.58;100.00
8523;BME280;4299;42.202;24.736;2023-02-28T06:39:05;100459.94;;;9.45;100.00
8523;BME280;4299;42.202;24.736;2023-02-28T06:41:33;100463.72;;;9.38;100.00
8523;BME280;4299;42.202;24.736;2023-02-28T06:44:03;100462.03;;;9.35;100.00
8523;BME280;4299;42.202;24.736;2023-02-28T06:49:43;100463.50;;;9.44;100.00
8523;BME280;4299;42.202;24.736;2023-02-28T06:52:10;100464.25;;;9.48;100.00
8523;BME280;4299;42.202;24.736;2023-02-28T06:54:37;100461.34;;;9.55;100.00
8523;BME280;4299;42.202;24.736;2023-02-28T06:57:05;100465.22;;;9.70;100.00
8523;BME280;4299;42.202;24.736;2023-02-28T06:59:32;100466.28;;;9.64;100.00
8523;BME280;4299;42.202;24.736;2023-02-28T07:01:58;100471.69;;;9.61;100.00
8523;BME280;4299;42.202;24.736;2023-02-28T07:04:25;100461.09;;;9.61;100.00
8523;BME280;4299;42.202;24.736;2023-02-28T07:06:53;100472.75;;;9.81;100.00
8523;BME280;4299;42.202;24.736;2023-02-28T07:09:21;100483.00;;;9.90;100.00
8523;BME280;4299;42.202;24.736;2023-02-28T07:11:48;100482.06;;;9.91;100.00
8523;BME280;4299;42.202;24.736;2023-02-28T07:14:15;100475.16;;;10.10;100.00
8523;BME280;4299;42.202;24.736;2023-02-28T07:16:42;100482.59;;;10.24;100.00
8523;BME280;4299;42.202;24.736;2023-02-28T07:19:10;100482.06;;;10.14;100.00
8523;BME280;4299;42.202;24.736;2023-02-28T07:21:37;100477.97;;;10.05;100.00
8523;BME280;4299;42.202;24.736;2023-02-28T07:24:04;100484.00;;;10.09;100.00
8523;BME280;4299;42.202;24.736;2023-02-28T07:26:31;100485.75;;;10.10;100.00
8523;BME280;4299;42.202;24.736;2023-02-28T07:28:59;100488.72;;;10.01;100.00
8523;BME280;4299;42.202;24.736;2023-02-28T07:31:27;100489.84;;;9.95;100.00
8523;BME280;4299;42.202;24.736;2023-02-28T07:33:54;100491.84;;;9.89;100.00
8523;BME280;4299;42.202;24.736;2023-02-28T07:36:21;100497.91;;;9.92;100.00
8523;BME280;4299;42.202;24.736;2023-02-28T07:38:48;100507.19;;;10.04;100.00
8523;BME280;4299;42.202;24.736;2023-02-28T07:41:16;100503.50;;;10.08;100.00
8523;BME280;4299;42.202;24.736;2023-02-28T07:43:43;100500.03;;;10.06;100.00
8523;BME280;4299;42.202;24.736;2023-02-28T07:46:12;100516.03;;;10.03;100.00
8523;BME280;4299;42.202;24.736;2023-02-28T07:48:42;100497.28;;;9.86;100.00
8523;BME280;4299;42.202;24.736;2023-02-28T07:51:09;100500.84;;;9.85;100.00
8523;BME280;4299;42.202;24.736;2023-02-28T07:53:36;100481.59;;;9.80;100.00
8523;BME280;4299;42.202;24.736;2023-02-28T07:56:03;100490.84;;;9.93;100.00
8523;BME280;4299;42.202;24.736;2023-02-28T07:58:30;100495.09;;;9.97;100.00
8523;BME280;4299;42.202;24.736;2023-02-28T08:00:57;100501.63;;;10.10;100.00
8523;BME280;4299;42.202;24.736;2023-02-28T08:03:30;100504.25;;;10.11;100.00
8523;BME280;4299;42.202;24.736;2023-02-28T08:05:58;100505.34;;;10.06;100.00
8523;BME280;4299;42.202;24.736;2023-02-28T08:08:25;100505.44;;;10.03;100.00
8523;BME280;4299;42.202;24.736;2023-02-28T08:10:54;100496.56;;;10.04;100.00
8523;BME280;4299;42.202;24.736;2023-02-28T08:13:21;100507.50;;;9.95;100.00
8523;BME280;4299;42.202;24.736;2023-02-28T08:15:48;100509.47;;;9.90;100.00
8523;BME280;4299;42.202;24.736;2023-02-28T08:18:14;100515.75;;;9.87;100.00
8523;BME280;4299;42.202;24.736;2023-02-28T08:20:41;100519.47;;;9.82;100.00
8523;BME280;4299;42.202;24.736;2023-02-28T08:23:09;100506.00;;;9.88;100.00
8523;BME280;4299;42.202;24.736;2023-02-28T08:25:36;100507.66;;;9.92;100.00
8523;BME280;4299;42.202;24.736;2023-02-28T08:28:03;100506.25;;;9.82;100.00
8523;BME280;4299;42.202;24.736;2023-02-28T08:30:29;100498.31;;;9.82;100.00
8523;BME280;4299;42.202;24.736;2023-02-28T08:32:56;100501.63;;;9.87;100.00
8523;BME280;4299;42.202;24.736;2023-02-28T08:35:23;100500.47;;;9.94;100.00
8523;BME280;4299;42.202;24.736;2023-02-28T08:37:50;100502.22;;;9.95;100.00
8523;BME280;4299;42.202;24.736;2023-02-28T08:40:18;100510.97;;;9.97;100.00
8523;BME280;4299;42.202;24.736;2023-02-28T08:42:45;100493.34;;;9.96;100.00
8523;BME280;4299;42.202;24.736;2023-02-28T08:45:13;100505.09;;;10.12;100.00
8523;BME280;4299;42.202;24.736;2023-02-28T08:47:40;100513.66;;;10.20;100.00
8523;BME280;4299;42.202;24.736;2023-02-28T08:50:08;100522.59;;;10.16;100.00
8523;BME280;4299;42.202;24.736;2023-02-28T08:52:35;100521.34;;;10.03;100.00
8523;BME280;4299;42.202;24.736;2023-02-28T08:55:04;100526.78;;;10.00;100.00
8523;BME280;4299;42.202;24.736;2023-02-28T08:57:32;100530.56;;;9.93;100.00
8523;BME280;4299;42.202;24.736;2023-02-28T08:59:58;100527.09;;;9.91;100.00
8523;BME280;4299;42.202;24.736;2023-02-28T09:02:26;100530.66;;;9.90;100.00
8523;BME280;4299;42.202;24.736;2023-02-28T09:04:53;100525.28;;;9.93;100.00
8523;BME280;4299;42.202;24.736;2023-02-28T09:07:20;100525.03;;;9.99;100.00
8523;BME280;4299;42.202;24.736;2023-02-28T09:09:47;100531.69;;;10.09;100.00
8523;BME280;4299;42.202;24.736;2023-02-28T09:12:24;100529.88;;;10.11;100.00
8523;BME280;4299;42.202;24.736;2023-02-28T09:14:52;100526.25;;;10.13;100.00
8523;BME280;4299;42.202;24.736;2023-02-28T09:17:20;100524.47;;;10.14;100.00
8523;BME280;4299;42.202;24.736;2023-02-28T09:19:47;100528.75;;;10.16;100.00
8523;BME280;4299;42.202;24.736;2023-02-28T09:22:14;100527.13;;;10.14;100.00
8523;BME280;4299;42.202;24.736;2023-02-28T09:24:41;100515.25;;;10.24;100.00
8523;BME280;4299;42.202;24.736;2023-02-28T09:27:10;100516.75;;;10.31;100.00
8523;BME280;4299;42.202;24.736;2023-02-28T09:29:37;100512.94;;;10.38;100.00
8523;BME280;4299;42.202;24.736;2023-02-28T09:32:05;100509.13;;;10.45;100.00
8523;BME280;4299;42.202;24.736;2023-02-28T09:34:33;100506.78;;;10.60;100.00
8523;BME280;4299;42.202;24.736;2023-02-28T09:36:59;100506.94;;;10.57;100.00
8523;BME280;4299;42.202;24.736;2023-02-28T09:39:26;100496.06;;;10.63;100.00
8523;BME280;4299;42.202;24.736;2023-02-28T09:41:55;100498.06;;;10.58;100.00
8523;BME280;4299;42.202;24.736;2023-02-28T09:44:28;100501.41;;;10.39;100.00
8523;BME280;4299;42.202;24.736;2023-02-28T09:46:58;100502.19;;;10.43;100.00
8523;BME280;4299;42.202;24.736;2023-02-28T09:49:34;100501.88;;;10.50;100.00
8523;BME280;4299;42.202;24.736;2023-02-28T09:52:05;100496.81;;;10.44;100.00
8523;BME280;4299;42.202;24.736;2023-02-28T09:54:35;100508.63;;;10.36;100.00
8523;BME280;4299;42.202;24.736;2023-02-28T09:57:07;100497.97;;;10.37;100.00
8523;BME280;4299;42.202;24.736;2023-02-28T09:59:44;100494.47;;;10.37;100.00
8523;BME280;4299;42.202;24.736;2023-02-28T10:02:32;100486.81;;;10.29;100.00
8523;BME280;4299;42.202;24.736;2023-02-28T10:05:08;100483.00;;;10.36;100.00
8523;BME280;4299;42.202;24.736;2023-02-28T10:07:49;100469.50;;;10.42;100.00
8523;BME280;4299;42.202;24.736;2023-02-28T10:10:24;100472.56;;;10.53;100.00
8523;BME280;4299;42.202;24.736;2023-02-28T10:12:54;100469.31;;;10.69;100.00
8523;BME280;4299;42.202;24.736;2023-02-28T10:15:24;100467.53;;;10.89;100.00
8523;BME280;4299;42.202;24.736;2023-02-28T10:17:54;100463.25;;;10.87;100.00
8523;BME280;4299;42.202;24.736;2023-02-28T10:20:25;100469.16;;;10.93;100.00
8523;BME280;4299;42.202;24.736;2023-02-28T10:22:58;100477.44;;;10.86;100.00
8523;BME280;4299;42.202;24.736;2023-02-28T10:25:33;100467.72;;;10.65;100.00
8523;BME280;4299;42.202;24.736;2023-02-28T10:28:05;100457.38;;;10.59;100.00
8523;BME280;4299;42.202;24.736;2023-02-28T10:30:32;100465.38;;;10.57;100.00
8523;BME280;4299;42.202;24.736;2023-02-28T10:32:58;100462.09;;;10.50;100.00
8523;BME280;4299;42.202;24.736;2023-02-28T10:35:27;100448.59;;;10.57;100.00
8523;BME280;4299;42.202;24.736;2023-02-28T10:37:56;100443.41;;;10.53;100.00
8523;BME280;4299;42.202;24.736;2023-02-28T10:40:29;100462.03;;;10.52;100.00
8523;BME280;4299;42.202;24.736;2023-02-28T10:42:58;100452.72;;;10.64;100.00
8523;BME280;4299;42.202;24.736;2023-02-28T10:45:26;100462.78;;;10.56;100.00
8523;BME280;4299;42.202;24.736;2023-02-28T10:47:57;100460.44;;;10.48;100.00
8523;BME280;4299;42.202;24.736;2023-02-28T10:50:32;100461.56;;;10.42;100.00
8523;BME280;4299;42.202;24.736;2023-02-28T10:53:14;100454.78;;;10.35;100.00
8523;BME280;4299;42.202;24.736;2023-02-28T10:55:42;100446.34;;;10.24;100.00
8523;BME280;4299;42.202;24.736;2023-02-28T10:58:31;100442.50;;;10.33;100.00
8523;BME280;4299;42.202;24.736;2023-02-28T11:00:59;100439.97;;;10.30;100.00
8523;BME280;4299;42.202;24.736;2023-02-28T11:03:30;100440.81;;;10.30;100.00
8523;BME280;4299;42.202;24.736;2023-02-28T11:06:35;100432.34;;;10.22;100.00
8523;BME280;4299;42.202;24.736;2023-02-28T11:09:04;100444.78;;;10.20;100.00
8523;BME280;4299;42.202;24.736;2023-02-28T11:11:43;100439.22;;;10.26;100.00
8523;BME280;4299;42.202;24.736;2023-02-28T11:14:18;100435.75;;;10.24;100.00
8523;BME280;4299;42.202;24.736;2023-02-28T11:16:46;100432.19;;;10.25;100.00
8523;BME280;4299;42.202;24.736;2023-02-28T11:19:19;100427.13;;;10.19;100.00
8523;BME280;4299;42.202;24.736;2023-02-28T11:21:53;100419.72;;;10.05;100.00
8523;BME280;4299;42.202;24.736;2023-02-28T11:24:24;100430.03;;;9.90;100.00
8523;BME280;4299;42.202;24.736;2023-02-28T11:26:52;100410.25;;;9.76;100.00
8523;BME280;4299;42.202;24.736;2023-02-28T11:29:22;100412.66;;;9.83;100.00
8523;BME280;4299;42.202;24.736;2023-02-28T11:32:12;100415.53;;;10.00;100.00
8523;BME280;4299;42.202;24.736;2023-02-28T11:34:39;100421.03;;;9.94;100.00
8523;BME280;4299;42.202;24.736;2023-02-28T11:37:12;100419.31;;;9.93;100.00
8523;BME280;4299;42.202;24.736;2023-02-28T11:39:39;100420.81;;;10.00;100.00
8523;BME280;4299;42.202;24.736;2023-02-28T11:42:38;100415.03;;;10.12;100.00
8523;BME280;4299;42.202;24.736;2023-02-28T11:45:17;100418.47;;;10.14;100.00
8523;BME280;4299;42.202;24.736;2023-02-28T11:47:48;100406.25;;;10.10;100.00
8523;BME280;4299;42.202;24.736;2023-02-28T11:50:33;100404.94;;;10.00;100.00
8523;BME280;4299;42.202;24.736;2023-02-28T11:53:16;100396.94;;;10.23;100.00
8523;BME280;4299;42.202;24.736;2023-02-28T11:55:45;100396.22;;;10.20;100.00
8523;BME280;4299;42.202;24.736;2023-02-28T11:58:28;100399.13;;;10.12;100.00
8523;BME280;4299;42.202;24.736;2023-02-28T12:01:15;100398.00;;;9.96;100.00
8523;BME280;4299;42.202;24.736;2023-02-28T12:03:56;100396.50;;;9.89;100.00
8523;BME280;4299;42.202;24.736;2023-02-28T12:06:29;100394.22;;;9.80;100.00
8523;BME280;4299;42.202;24.736;2023-02-28T12:09:08;100391.81;;;9.73;100.00
8523;BME280;4299;42.202;24.736;2023-02-28T12:11:46;100389.69;;;9.60;100.00
8523;BME280;4299;42.202;24.736;2023-02-28T12:14:43;100387.22;;;9.55;100.00
8523;BME280;4299;42.202;24.736;2023-02-28T12:17:22;100392.50;;;9.55;100.00
8523;BME280;4299;42.202;24.736;2023-02-28T12:19:59;100390.31;;;9.66;100.00
8523;BME280;4299;42.202;24.736;2023-02-28T12:22:30;100388.72;;;9.62;100.00
8523;BME280;4299;42.202;24.736;2023-02-28T12:28:06;100398.59;;;9.57;100.00
8523;BME280;4299;42.202;24.736;2023-02-28T12:30:35;100388.97;;;9.56;100.00
8523;BME280;4299;42.202;24.736;2023-02-28T12:33:08;100386.03;;;9.64;100.00
8523;BME280;4299;42.202;24.736;2023-02-28T12:35:39;100385.25;;;9.60;100.00
8523;BME280;4299;42.202;24.736;2023-02-28T12:38:11;100377.78;;;9.48;100.00
8523;BME280;4299;42.202;24.736;2023-02-28T12:40:44;100371.22;;;9.35;100.00
8523;BME280;4299;42.202;24.736;2023-02-28T12:43:15;100371.91;;;9.40;100.00
8523;BME280;4299;42.202;24.736;2023-02-28T12:45:45;100384.97;;;9.45;100.00
8523;BME280;4299;42.202;24.736;2023-02-28T12:48:19;100384.00;;;9.47;100.00
8523;BME280;4299;42.202;24.736;2023-02-28T12:50:48;100382.25;;;9.46;100.00
8523;BME280;4299;42.202;24.736;2023-02-28T12:53:20;100373.41;;;9.47;100.00
8523;BME280;4299;42.202;24.736;2023-02-28T12:55:56;100380.44;;;9.48;100.00
8523;BME280;4299;42.202;24.736;2023-02-28T12:58:31;100372.50;;;9.48;100.00
8523;BME280;4299;42.202;24.736;2023-02-28T13:01:30;100383.66;;;9.56;100.00
8523;BME280;4299;42.202;24.736;2023-02-28T13:04:27;100381.69;;;9.61;100.00
8523;BME280;4299;42.202;24.736;2023-02-28T13:07:11;100386.31;;;9.56;100.00
8523;BME280;4299;42.202;24.736;2023-02-28T13:09:51;100367.00;;;9.53;100.00
8523;BME280;4299;42.202;24.736;2023-02-28T13:12:19;100368.13;;;9.47;100.00
8523;BME280;4299;42.202;24.736;2023-02-28T13:14:50;100369.09;;;9.45;100.00
8523;BME280;4299;42.202;24.736;2023-02-28T13:17:19;100365.41;;;9.25;100.00
8523;BME280;4299;42.202;24.736;2023-02-28T13:19:57;100364.59;;;9.23;100.00
8523;BME280;4299;42.202;24.736;2023-02-28T13:22:39;100356.06;;;9.15;100.00